sensor_id;sensor_type;location;lat;lon;timestamp;pressure;altitude;pressure_sealevel;temperature;humidity
46710;BME280;32442;51.514;-0.178;2023-04-26T00:01:32;101733.16;;;21.84;38.66
46710;BME280;32442;51.514;-0.178;2023-04-26T00:04:01;101737.66;;;21.85;38.39
46710;BME280;32442;51.514;-0.178;2023-04-26T00:06:28;101742.72;;;21.83;38.76
46710;BME280;32442;51.514;-0.178;2023-04-26T00:08:55;101736.25;;;21.82;38.62
46710;BME280;32442;51.514;-0.178;2023-04-26T00:11:22;101734.28;;;21.83;38.54
46710;BME280;32442;51.514;-0.178;2023-04-26T00:13:49;101725.00;;;21.82;38.78
46710;BME280;32442;51.514;-0.178;2023-04-26T00:16:16;101721.66;;;21.80;38.78
46710;BME280;32442;51.514;-0.178;2023-04-26T00:18:44;101718.00;;;21.80;38.90
46710;BME280;32442;51.514;-0.178;2023-04-26T00:21:11;101717.47;;;21.78;38.59
46710;BME280;32442;51.514;-0.178;2023-04-26T00:23:38;101712.66;;;21.78;38.75
46710;BME280;32442;51.514;-0.178;2023-04-26T00:26:05;101706.75;;;21.80;38.87
46710;BME280;32442;51.514;-0.178;2023-04-26T00:28:32;101695.84;;;21.73;38.78
46710;BME280;32442;51.514;-0.178;2023-04-26T00:30:59;101694.72;;;21.74;38.76
46710;BME280;32442;51.514;-0.178;2023-04-26T00:33:26;101690.78;;;21.75;38.96
46710;BME280;32442;51.514;-0.178;2023-04-26T00:35:52;101683.19;;;21.76;38.70
46710;BME280;32442;51.514;-0.178;2023-04-26T00:38:19;101686.28;;;21.74;39.29
46710;BME280;32442;51.514;-0.178;2023-04-26T00:40:46;101686.56;;;21.72;39.19
46710;BME280;32442;51.514;-0.178;2023-04-26T00:43:13;101686.28;;;21.74;39.03
46710;BME280;32442;51.514;-0.178;2023-04-26T00:45:39;101682.91;;;21.72;39.03
46710;BME280;32442;51.514;-0.178;2023-04-26T00:48:06;101688.59;;;21.67;39.22
46710;BME280;32442;51.514;-0.178;2023-04-26T00:50:33;101686.94;;;21.66;39.14
46710;BME280;32442;51.514;-0.178;2023-04-26T00:53:00;101682.22;;;21.61;39.39
46710;BME280;32442;51.514;-0.178;2023-04-26T00:55:28;101686.16;;;21.60;39.33
46710;BME280;32442;51.514;-0.178;2023-04-26T00:57:58;101681.41;;;21.56;39.40
46710;BME280;32442;51.514;-0.178;2023-04-26T01:00:25;101688.47;;;21.53;39.29
46710;BME280;32442;51.514;-0.178;2023-04-26T01:02:52;101680.91;;;21.49;39.55
46710;BME280;32442;51.514;-0.178;2023-04-26T01:05:19;101688.59;;;21.43;39.71
46710;BME280;32442;51.514;-0.178;2023-04-26T01:07:46;101686.66;;;21.39;39.50
46710;BME280;32442;51.514;-0.178;2023-04-26T01:10:13;101692.88;;;21.36;39.63
46710;BME280;32442;51.514;-0.178;2023-04-26T01:12:40;101688.09;;;21.36;39.58
46710;BME280;32442;51.514;-0.178;2023-04-26T01:15:07;101682.50;;;21.31;39.63
46710;BME280;32442;51.514;-0.178;2023-04-26T01:17:35;101683.94;;;21.28;39.73
46710;BME280;32442;51.514;-0.178;2023-04-26T01:20:03;101682.03;;;21.24;39.92
46710;BME280;32442;51.514;-0.178;2023-04-26T01:22:32;101674.44;;;21.24;39.49
46710;BME280;32442;51.514;-0.178;2023-04-26T01:24:59;101673.34;;;21.20;39.60
46710;BME280;32442;51.514;-0.178;2023-04-26T01:27:27;101673.06;;;21.17;40.00
46710;BME280;32442;51.514;-0.178;2023-04-26T01:29:54;101668.63;;;21.16;39.78
46710;BME280;32442;51.514;-0.178;2023-04-26T01:32:21;101661.59;;;21.13;39.63
46710;BME280;32442;51.514;-0.178;2023-04-26T01:34:48;101654.56;;;21.11;39.63
46710;BME280;32442;51.514;-0.178;2023-04-26T01:37:15;101652.34;;;21.08;39.67
46710;BME280;32442;51.514;-0.178;2023-04-26T01:39:41;101641.16;;;21.03;39.80
46710;BME280;32442;51.514;-0.178;2023-04-26T01:42:08;101649.03;;;21.01;39.72
46710;BME280;32442;51.514;-0.178;2023-04-26T01:44:35;101658.06;;;20.98;40.03
46710;BME280;32442;51.514;-0.178;2023-04-26T01:47:02;101660.28;;;21.01;40.21
46710;BME280;32442;51.514;-0.178;2023-04-26T01:49:31;101652.44;;;20.98;39.83
46710;BME280;32442;51.514;-0.178;2023-04-26T01:51:58;101639.81;;;20.95;40.00
46710;BME280;32442;51.514;-0.178;2023-04-26T01:54:27;101646.03;;;20.92;40.20
46710;BME280;32442;51.514;-0.178;2023-04-26T01:56:54;101642.97;;;20.89;40.15
46710;BME280;32442;51.514;-0.178;2023-04-26T01:59:21;101647.72;;;20.93;40.41
46710;BME280;32442;51.514;-0.178;2023-04-26T02:01:48;101648.03;;;20.86;39.97
46710;BME280;32442;51.514;-0.178;2023-04-26T02:04:15;101648.63;;;20.83;40.26
46710;BME280;32442;51.514;-0.178;2023-04-26T02:06:42;101643.88;;;20.84;40.15
46710;BME280;32442;51.514;-0.178;2023-04-26T02:09:09;101645.28;;;20.81;40.08
46710;BME280;32442;51.514;-0.178;2023-04-26T02:11:36;101644.75;;;20.79;40.45
46710;BME280;32442;51.514;-0.178;2023-04-26T02:14:02;101647.00;;;20.77;40.38
46710;BME280;32442;51.514;-0.178;2023-04-26T02:16:29;101646.16;;;20.77;40.47
46710;BME280;32442;51.514;-0.178;2023-04-26T02:18:57;101650.88;;;20.81;40.06
46710;BME280;32442;51.514;-0.178;2023-04-26T02:21:24;101658.50;;;20.76;40.33
46710;BME280;32442;51.514;-0.178;2023-04-26T02:23:52;101655.41;;;20.77;40.32
46710;BME280;32442;51.514;-0.178;2023-04-26T02:26:19;101648.69;;;20.78;40.23
46710;BME280;32442;51.514;-0.178;2023-04-26T02:28:46;101650.09;;;20.76;40.30
46710;BME280;32442;51.514;-0.178;2023-04-26T02:31:13;101642.78;;;20.80;40.01
46710;BME280;32442;51.514;-0.178;2023-04-26T02:33:39;101648.13;;;20.76;40.33
46710;BME280;32442;51.514;-0.178;2023-04-26T02:36:06;101641.66;;;20.76;40.05
46710;BME280;32442;51.514;-0.178;2023-04-26T02:38:34;101638.03;;;20.75;40.12
46710;BME280;32442;51.514;-0.178;2023-04-26T02:41:02;101636.03;;;20.76;40.42
46710;BME280;32442;51.514;-0.178;2023-04-26T02:43:29;101636.94;;;20.71;40.32
46710;BME280;32442;51.514;-0.178;2023-04-26T02:45:56;101648.22;;;20.66;40.87
46710;BME280;32442;51.514;-0.178;2023-04-26T02:48:26;101644.25;;;20.67;40.49
46710;BME280;32442;51.514;-0.178;2023-04-26T02:50:52;101649.63;;;20.64;40.66
46710;BME280;32442;51.514;-0.178;2023-04-26T02:53:19;101642.03;;;20.64;40.96
46710;BME280;32442;51.514;-0.178;2023-04-26T02:55:46;101645.69;;;20.65;41.03
46710;BME280;32442;51.514;-0.178;2023-04-26T02:58:13;101637.88;;;20.62;40.98
46710;BME280;32442;51.514;-0.178;2023-04-26T03:00:44;101647.94;;;20.63;41.04
46710;BME280;32442;51.514;-0.178;2023-04-26T03:03:11;101642.91;;;20.60;40.97
46710;BME280;32442;51.514;-0.178;2023-04-26T03:05:39;101647.94;;;20.63;40.75
46710;BME280;32442;51.514;-0.178;2023-04-26T03:08:07;101637.59;;;20.58;41.04
46710;BME280;32442;51.514;-0.178;2023-04-26T03:10:37;101644.34;;;20.57;40.89
46710;BME280;32442;51.514;-0.178;2023-04-26T03:13:04;101637.94;;;20.52;41.03
46710;BME280;32442;51.514;-0.178;2023-04-26T03:15:30;101640.47;;;20.53;41.03
46710;BME280;32442;51.514;-0.178;2023-04-26T03:17:57;101634.53;;;20.55;41.31
46710;BME280;32442;51.514;-0.178;2023-04-26T03:20:24;101629.78;;;20.50;41.01
46710;BME280;32442;51.514;-0.178;2023-04-26T03:22:51;101631.50;;;20.46;41.19
46710;BME280;32442;51.514;-0.178;2023-04-26T03:25:18;101622.25;;;20.46;40.96
46710;BME280;32442;51.514;-0.178;2023-04-26T03:27:45;101619.44;;;20.46;41.00
46710;BME280;32442;51.514;-0.178;2023-04-26T03:30:14;101628.41;;;20.48;41.38
46710;BME280;32442;51.514;-0.178;2023-04-26T03:32:41;101631.50;;;20.46;40.99
46710;BME280;32442;51.514;-0.178;2023-04-26T03:35:08;101628.16;;;20.44;41.01
46710;BME280;32442;51.514;-0.178;2023-04-26T03:37:35;101625.38;;;20.44;41.40
46710;BME280;32442;51.514;-0.178;2023-04-26T03:40:06;101630.13;;;20.44;41.46
46710;BME280;32442;51.514;-0.178;2023-04-26T03:42:34;101622.28;;;20.40;41.32
46710;BME280;32442;51.514;-0.178;2023-04-26T03:45:02;101627.88;;;20.40;41.53
46710;BME280;32442;51.514;-0.178;2023-04-26T03:47:29;101625.94;;;20.41;41.42
46710;BME280;32442;51.514;-0.178;2023-04-26T03:49:57;101622.88;;;20.37;41.13
46710;BME280;32442;51.514;-0.178;2023-04-26T03:52:23;101628.22;;;20.34;41.21
46710;BME280;32442;51.514;-0.178;2023-04-26T03:54:50;101618.97;;;20.33;41.11
46710;BME280;32442;51.514;-0.178;2023-04-26T03:57:17;101623.47;;;20.34;41.34
46710;BME280;32442;51.514;-0.178;2023-04-26T03:59:44;101617.28;;;20.32;41.00
46710;BME280;32442;51.514;-0.178;2023-04-26T04:02:11;101619.25;;;20.32;41.11
46710;BME280;32442;51.514;-0.178;2023-04-26T04:04:38;101618.72;;;20.30;41.35
46710;BME280;32442;51.514;-0.178;2023-04-26T04:07:05;101609.97;;;20.26;41.64
46710;BME280;32442;51.514;-0.178;2023-04-26T04:09:33;101614.19;;;20.29;41.47
46710;BME280;32442;51.514;-0.178;2023-04-26T04:11:59;101610.56;;;20.23;41.30
46710;BME280;32442;51.514;-0.178;2023-04-26T04:14:26;101606.66;;;20.24;41.29
46710;BME280;32442;51.514;-0.178;2023-04-26T04:16:53;101609.22;;;20.16;41.86
46710;BME280;32442;51.514;-0.178;2023-04-26T04:19:20;101604.72;;;20.20;41.54
46710;BME280;32442;51.514;-0.178;2023-04-26T04:21:47;101599.69;;;20.17;41.92
46710;BME280;32442;51.514;-0.178;2023-04-26T04:24:13;101600.81;;;20.16;41.57
46710;BME280;32442;51.514;-0.178;2023-04-26T04:26:40;101601.09;;;20.14;41.81
46710;BME280;32442;51.514;-0.178;2023-04-26T04:29:08;101599.72;;;20.12;41.80
46710;BME280;32442;51.514;-0.178;2023-04-26T04:31:35;101593.53;;;20.15;41.91
46710;BME280;32442;51.514;-0.178;2023-04-26T04:34:02;101586.25;;;20.09;42.20
46710;BME280;32442;51.514;-0.178;2023-04-26T04:36:29;101582.88;;;20.12;41.98
46710;BME280;32442;51.514;-0.178;2023-04-26T04:38:56;101588.78;;;20.10;42.09
46710;BME280;32442;51.514;-0.178;2023-04-26T04:41:23;101578.69;;;20.09;41.99
46710;BME280;32442;51.514;-0.178;2023-04-26T04:43:50;101577.59;;;20.05;42.42
46710;BME280;32442;51.514;-0.178;2023-04-26T04:46:19;101585.72;;;20.07;42.16
46710;BME280;32442;51.514;-0.178;2023-04-26T04:48:46;101582.34;;;20.05;42.15
46710;BME280;32442;51.514;-0.178;2023-04-26T04:51:14;101592.19;;;20.02;42.10
46710;BME280;32442;51.514;-0.178;2023-04-26T04:53:40;101597.84;;;19.97;42.21
46710;BME280;32442;51.514;-0.178;2023-04-26T04:56:07;101596.41;;;19.99;42.40
46710;BME280;32442;51.514;-0.178;2023-04-26T04:58:34;101592.50;;;19.95;42.25
46710;BME280;32442;51.514;-0.178;2023-04-26T05:01:01;101593.59;;;19.99;42.43
46710;BME280;32442;51.514;-0.178;2023-04-26T05:03:28;101587.47;;;19.92;42.53
46710;BME280;32442;51.514;-0.178;2023-04-26T05:05:55;101588.00;;;19.94;42.47
46710;BME280;32442;51.514;-0.178;2023-04-26T05:08:22;101589.09;;;20.04;42.48
46710;BME280;32442;51.514;-0.178;2023-04-26T05:10:49;101596.63;;;20.08;42.59
46710;BME280;32442;51.514;-0.178;2023-04-26T05:13:17;101591.84;;;20.14;42.54
46710;BME280;32442;51.514;-0.178;2023-04-26T05:15:46;101599.38;;;20.18;42.83
46710;BME280;32442;51.514;-0.178;2023-04-26T05:18:13;101590.94;;;20.23;42.84
46710;BME280;32442;51.514;-0.178;2023-04-26T05:20:39;101588.38;;;20.27;43.17
46710;BME280;32442;51.514;-0.178;2023-04-26T05:23:07;101590.34;;;20.31;43.07
46710;BME280;32442;51.514;-0.178;2023-04-26T05:25:35;101593.97;;;20.37;43.25
46710;BME280;32442;51.514;-0.178;2023-04-26T05:28:02;101596.72;;;20.42;43.29
46710;BME280;32442;51.514;-0.178;2023-04-26T05:30:29;101600.34;;;20.48;43.40
46710;BME280;32442;51.514;-0.178;2023-04-26T05:32:56;101601.97;;;20.54;43.23
46710;BME280;32442;51.514;-0.178;2023-04-26T05:35:23;101584.81;;;20.60;43.32
46710;BME280;32442;51.514;-0.178;2023-04-26T05:37:50;101599.63;;;20.66;43.23
46710;BME280;32442;51.514;-0.178;2023-04-26T05:40:17;101602.94;;;20.73;43.31
46710;BME280;32442;51.514;-0.178;2023-04-26T05:42:44;101610.19;;;20.79;43.15
46710;BME280;32442;51.514;-0.178;2023-04-26T05:45:11;101602.56;;;20.84;42.78
46710;BME280;32442;51.514;-0.178;2023-04-26T05:47:38;101609.28;;;20.89;42.62
46710;BME280;32442;51.514;-0.178;2023-04-26T05:50:05;101613.69;;;20.95;42.41
46710;BME280;32442;51.514;-0.178;2023-04-26T05:52:32;101600.72;;;20.99;42.34
46710;BME280;32442;51.514;-0.178;2023-04-26T05:54:59;101601.84;;;21.03;42.22
46710;BME280;32442;51.514;-0.178;2023-04-26T05:57:29;101610.19;;;21.08;42.37
46710;BME280;32442;51.514;-0.178;2023-04-26T05:59:57;101595.84;;;21.09;41.91
46710;BME280;32442;51.514;-0.178;2023-04-26T06:02:25;101596.13;;;21.13;41.68
46710;BME280;32442;51.514;-0.178;2023-04-26T06:04:52;101599.19;;;21.16;41.88
46710;BME280;32442;51.514;-0.178;2023-04-26T06:07:20;101601.13;;;21.21;41.71
46710;BME280;32442;51.514;-0.178;2023-04-26T06:09:47;101611.19;;;21.22;41.52
46710;BME280;32442;51.514;-0.178;2023-04-26T06:12:16;101613.72;;;21.23;41.60
46710;BME280;32442;51.514;-0.178;2023-04-26T06:14:43;101612.28;;;21.26;41.30
46710;BME280;32442;51.514;-0.178;2023-04-26T06:17:10;101603.28;;;21.29;41.43
46710;BME280;32442;51.514;-0.178;2023-04-26T06:19:37;101608.56;;;21.30;40.75
46710;BME280;32442;51.514;-0.178;2023-04-26T06:22:04;101603.44;;;21.14;38.19
46710;BME280;32442;51.514;-0.178;2023-04-26T06:24:31;101598.53;;;21.24;38.42
46710;BME280;32442;51.514;-0.178;2023-04-26T06:26:58;101601.59;;;21.28;38.08
46710;BME280;32442;51.514;-0.178;2023-04-26T06:29:25;101601.31;;;21.29;37.93
46710;BME280;32442;51.514;-0.178;2023-04-26T06:31:52;101601.31;;;21.29;37.97
46710;BME280;32442;51.514;-0.178;2023-04-26T06:34:21;101602.50;;;21.23;38.33
46710;BME280;32442;51.514;-0.178;2023-04-26T06:36:49;101606.38;;;21.27;37.89
46710;BME280;32442;51.514;-0.178;2023-04-26T06:39:16;101594.06;;;21.23;37.77
46710;BME280;32442;51.514;-0.178;2023-04-26T06:41:43;101603.31;;;21.24;38.06
46710;BME280;32442;51.514;-0.178;2023-04-26T06:44:10;101602.78;;;21.22;37.84
46710;BME280;32442;51.514;-0.178;2023-04-26T06:46:37;101605.06;;;21.20;37.88
46710;BME280;32442;51.514;-0.178;2023-04-26T06:49:04;101603.94;;;21.21;37.80
46710;BME280;32442;51.514;-0.178;2023-04-26T06:51:31;101600.56;;;21.19;37.34
46710;BME280;32442;51.514;-0.178;2023-04-26T06:53:58;101601.16;;;21.16;37.59
46710;BME280;32442;51.514;-0.178;2023-04-26T06:56:26;101602.81;;;21.17;37.03
46710;BME280;32442;51.514;-0.178;2023-04-26T06:58:57;101600.06;;;21.12;37.55
46710;BME280;32442;51.514;-0.178;2023-04-26T07:01:26;101601.19;;;21.11;37.17
46710;BME280;32442;51.514;-0.178;2023-04-26T07:03:55;101603.75;;;21.07;36.97
46710;BME280;32442;51.514;-0.178;2023-04-26T07:06:24;101605.16;;;21.05;37.22
46710;BME280;32442;51.514;-0.178;2023-04-26T07:08:52;101605.22;;;21.00;37.36
46710;BME280;32442;51.514;-0.178;2023-04-26T07:11:19;101601.28;;;21.01;37.25
46710;BME280;32442;51.514;-0.178;2023-04-26T07:13:50;101594.88;;;20.95;36.65
46710;BME280;32442;51.514;-0.178;2023-04-26T07:16:19;101597.69;;;20.95;37.01
46710;BME280;32442;51.514;-0.178;2023-04-26T07:18:46;101594.88;;;20.95;36.90
46710;BME280;32442;51.514;-0.178;2023-04-26T07:21:15;101596.63;;;20.86;37.24
46710;BME280;32442;51.514;-0.178;2023-04-26T07:23:44;101599.22;;;20.82;37.29
46710;BME280;32442;51.514;-0.178;2023-04-26T07:26:12;101584.56;;;20.85;36.91
46710;BME280;32442;51.514;-0.178;2023-04-26T07:28:39;101592.47;;;20.83;37.15
46710;BME280;32442;51.514;-0.178;2023-04-26T07:31:06;101591.91;;;20.81;37.14
46710;BME280;32442;51.514;-0.178;2023-04-26T07:33:36;101589.13;;;20.76;37.35
46710;BME280;32442;51.514;-0.178;2023-04-26T07:36:04;101588.91;;;20.73;37.56
46710;BME280;32442;51.514;-0.178;2023-04-26T07:38:31;101592.75;;;20.82;37.62
46710;BME280;32442;51.514;-0.178;2023-04-26T07:40:59;101596.41;;;20.82;38.19
46710;BME280;32442;51.514;-0.178;2023-04-26T07:43:29;101593.91;;;20.76;38.01
46710;BME280;32442;51.514;-0.178;2023-04-26T07:45:59;101588.84;;;20.78;38.17
46710;BME280;32442;51.514;-0.178;2023-04-26T07:48:31;101594.50;;;20.73;38.48
46710;BME280;32442;51.514;-0.178;2023-04-26T07:53:35;101604.41;;;20.65;38.21
46710;BME280;32442;51.514;-0.178;2023-04-26T07:56:04;101601.88;;;20.64;38.32
46710;BME280;32442;51.514;-0.178;2023-04-26T07:58:33;101599.09;;;20.64;38.20
46710;BME280;32442;51.514;-0.178;2023-04-26T08:01:01;101599.59;;;20.71;37.96
46710;BME280;32442;51.514;-0.178;2023-04-26T08:03:36;101595.34;;;20.73;37.92
46710;BME280;32442;51.514;-0.178;2023-04-26T08:06:04;101602.06;;;20.77;37.83
46710;BME280;32442;51.514;-0.178;2023-04-26T08:08:33;101603.97;;;20.82;37.42
46710;BME280;32442;51.514;-0.178;2023-04-26T08:11:01;101600.56;;;20.85;37.73
46710;BME280;32442;51.514;-0.178;2023-04-26T08:13:28;101603.34;;;20.90;37.91
46710;BME280;32442;51.514;-0.178;2023-04-26T08:15:55;101614.00;;;20.93;37.77
46710;BME280;32442;51.514;-0.178;2023-04-26T08:18:23;101615.94;;;20.98;37.60
46710;BME280;32442;51.514;-0.178;2023-04-26T08:20:50;101620.94;;;21.01;37.76
46710;BME280;32442;51.514;-0.178;2023-04-26T08:23:18;101622.31;;;21.03;37.72
46710;BME280;32442;51.514;-0.178;2023-04-26T08:25:45;101617.25;;;21.05;37.39
46710;BME280;32442;51.514;-0.178;2023-04-26T08:28:13;101621.44;;;21.08;37.56
46710;BME280;32442;51.514;-0.178;2023-04-26T08:30:41;101616.38;;;21.10;37.55
46710;BME280;32442;51.514;-0.178;2023-04-26T08:33:08;101620.53;;;21.12;37.60
46710;BME280;32442;51.514;-0.178;2023-04-26T08:35:35;101611.56;;;21.15;37.30
46710;BME280;32442;51.514;-0.178;2023-04-26T08:38:03;101612.09;;;21.17;37.07
46710;BME280;32442;51.514;-0.178;2023-04-26T08:40:30;101609.84;;;21.19;37.53
46710;BME280;32442;51.514;-0.178;2023-04-26T08:42:58;101610.69;;;21.20;37.14
46710;BME280;32442;51.514;-0.178;2023-04-26T08:45:26;101607.88;;;21.20;36.82
46710;BME280;32442;51.514;-0.178;2023-04-26T08:47:55;101606.75;;;21.21;36.90
46710;BME280;32442;51.514;-0.178;2023-04-26T08:50:24;101608.41;;;21.22;36.74
46710;BME280;32442;51.514;-0.178;2023-04-26T08:52:52;101611.19;;;21.22;36.65
46710;BME280;32442;51.514;-0.178;2023-04-26T08:55:20;101601.66;;;21.23;37.00
46710;BME280;32442;51.514;-0.178;2023-04-26T08:57:48;101599.38;;;21.25;37.08
46710;BME280;32442;51.514;-0.178;2023-04-26T09:00:16;101613.72;;;21.23;37.09
46710;BME280;32442;51.514;-0.178;2023-04-26T09:02:45;101604.44;;;21.23;36.52
46710;BME280;32442;51.514;-0.178;2023-04-26T09:05:13;101607.56;;;21.21;36.73
46710;BME280;32442;51.514;-0.178;2023-04-26T09:07:42;101607.25;;;21.23;36.71
46710;BME280;32442;51.514;-0.178;2023-04-26T09:10:11;101607.56;;;21.21;36.72
46710;BME280;32442;51.514;-0.178;2023-04-26T09:12:39;101612.88;;;21.23;36.88
46710;BME280;32442;51.514;-0.178;2023-04-26T09:15:06;101612.03;;;21.22;36.69
46710;BME280;32442;51.514;-0.178;2023-04-26T09:17:35;101614.63;;;21.19;36.48
46710;BME280;32442;51.514;-0.178;2023-04-26T09:22:39;101618.56;;;21.18;36.46
46710;BME280;32442;51.514;-0.178;2023-04-26T09:25:07;101612.94;;;21.18;36.51
46710;BME280;32442;51.514;-0.178;2023-04-26T09:27:35;101610.19;;;21.13;36.72
46710;BME280;32442;51.514;-0.178;2023-04-26T09:37:51;101617.84;;;21.02;36.41
46710;BME280;32442;51.514;-0.178;2023-04-26T09:40:28;101629.13;;;20.97;36.88
46710;BME280;32442;51.514;-0.178;2023-04-26T09:43:00;101624.94;;;20.95;36.81
46710;BME280;32442;51.514;-0.178;2023-04-26T09:45:28;101622.72;;;20.92;37.02
46710;BME280;32442;51.514;-0.178;2023-04-26T09:50:33;101621.63;;;20.88;36.99
46710;BME280;32442;51.514;-0.178;2023-04-26T09:53:00;101620.22;;;20.85;36.78
46710;BME280;32442;51.514;-0.178;2023-04-26T09:55:29;101615.22;;;20.82;36.67
46710;BME280;32442;51.514;-0.178;2023-04-26T09:58:08;101618.03;;;20.82;36.44
46710;BME280;32442;51.514;-0.178;2023-04-26T10:00:36;101616.94;;;20.78;36.55
46710;BME280;32442;51.514;-0.178;2023-04-26T10:03:04;101610.47;;;20.77;37.00
46710;BME280;32442;51.514;-0.178;2023-04-26T10:05:35;101605.16;;;20.76;36.53
46710;BME280;32442;51.514;-0.178;2023-04-26T10:08:02;101606.31;;;20.75;36.57
46710;BME280;32442;51.514;-0.178;2023-04-26T10:10:29;101606.31;;;20.75;37.08
46710;BME280;32442;51.514;-0.178;2023-04-26T10:12:57;101604.06;;;20.72;36.57
46710;BME280;32442;51.514;-0.178;2023-04-26T10:15:27;101606.06;;;20.71;36.58
46710;BME280;32442;51.514;-0.178;2023-04-26T10:17:54;101613.94;;;20.69;37.06
46710;BME280;32442;51.514;-0.178;2023-04-26T10:20:21;101606.63;;;20.68;37.10
46710;BME280;32442;51.514;-0.178;2023-04-26T10:22:51;101610.03;;;20.65;37.01
46710;BME280;32442;51.514;-0.178;2023-04-26T10:25:19;101606.38;;;20.65;36.75
46710;BME280;32442;51.514;-0.178;2023-04-26T10:27:47;101607.81;;;20.62;36.96
46710;BME280;32442;51.514;-0.178;2023-04-26T10:30:16;101600.81;;;20.60;36.99
46710;BME280;32442;51.514;-0.178;2023-04-26T10:35:19;101607.00;;;20.57;37.09
46710;BME280;32442;51.514;-0.178;2023-04-26T10:40:25;101607.00;;;20.57;36.66
46710;BME280;32442;51.514;-0.178;2023-04-26T10:45:30;101598.88;;;20.55;36.83
46710;BME280;32442;51.514;-0.178;2023-04-26T10:50:33;101602.03;;;20.49;37.25
46710;BME280;32442;51.514;-0.178;2023-04-26T10:53:20;101590.25;;;20.47;37.20
46710;BME280;32442;51.514;-0.178;2023-04-26T10:55:49;101590.81;;;20.49;36.95
46710;BME280;32442;51.514;-0.178;2023-04-26T11:03:31;101584.63;;;20.47;37.34
46710;BME280;32442;51.514;-0.178;2023-04-26T11:05:59;101581.56;;;20.43;37.02
46710;BME280;32442;51.514;-0.178;2023-04-26T11:08:29;101576.81;;;20.44;36.99
46710;BME280;32442;51.514;-0.178;2023-04-26T11:13:25;101579.34;;;20.40;36.96
46710;BME280;32442;51.514;-0.178;2023-04-26T11:15:53;101570.09;;;20.39;37.13
46710;BME280;32442;51.514;-0.178;2023-04-26T11:18:25;101574.88;;;20.39;37.46
46710;BME280;32442;51.514;-0.178;2023-04-26T11:20:52;101565.38;;;20.35;37.38
46710;BME280;32442;51.514;-0.178;2023-04-26T11:23:20;101566.97;;;20.41;37.15
46710;BME280;32442;51.514;-0.178;2023-04-26T11:25:49;101579.91;;;20.42;37.45
46710;BME280;32442;51.514;-0.178;2023-04-26T11:28:17;101571.19;;;20.44;37.45
46710;BME280;32442;51.514;-0.178;2023-04-26T11:30:45;101565.56;;;20.44;37.09
46710;BME280;32442;51.514;-0.178;2023-04-26T11:33:20;101565.56;;;20.44;37.27
46710;BME280;32442;51.514;-0.178;2023-04-26T11:35:50;101569.22;;;20.44;37.21
46710;BME280;32442;51.514;-0.178;2023-04-26T11:38:17;101563.63;;;20.44;37.23
46710;BME280;32442;51.514;-0.178;2023-04-26T11:40:56;101554.63;;;20.42;37.36
46710;BME280;32442;51.514;-0.178;2023-04-26T11:43:29;101552.66;;;20.42;37.33
46710;BME280;32442;51.514;-0.178;2023-04-26T11:45:58;101552.66;;;20.42;37.18
46710;BME280;32442;51.514;-0.178;2023-04-26T11:48:27;101561.38;;;20.41;37.44
46710;BME280;32442;51.514;-0.178;2023-04-26T11:50:56;101559.69;;;20.40;37.07
46710;BME280;32442;51.514;-0.178;2023-04-26T11:56:04;101551.25;;;20.40;37.42
46710;BME280;32442;51.514;-0.178;2023-04-26T11:58:31;101556.06;;;20.39;37.11
46710;BME280;32442;51.514;-0.178;2023-04-26T12:00:59;101551.03;;;20.36;37.20
46710;BME280;32442;51.514;-0.178;2023-04-26T12:03:31;101559.44;;;20.36;37.05
46710;BME280;32442;51.514;-0.178;2023-04-26T12:06:03;101559.44;;;20.36;37.25
46710;BME280;32442;51.514;-0.178;2023-04-26T12:08:32;101558.31;;;20.37;37.21
46710;BME280;32442;51.514;-0.178;2023-04-26T12:11:00;101558.06;;;20.34;36.98
46710;BME280;32442;51.514;-0.178;2023-04-26T12:13:28;101556.09;;;20.34;37.08
46710;BME280;32442;51.514;-0.178;2023-04-26T12:15:56;101550.78;;;20.33;37.08
46710;BME280;32442;51.514;-0.178;2023-04-26T12:18:30;101548.56;;;20.30;37.03
46710;BME280;32442;51.514;-0.178;2023-04-26T12:20:58;101545.44;;;20.26;36.90
46710;BME280;32442;51.514;-0.178;2023-04-26T12:23:25;101548.81;;;20.28;36.95
46710;BME280;32442;51.514;-0.178;2023-04-26T12:25:54;101533.38;;;20.31;36.86
46710;BME280;32442;51.514;-0.178;2023-04-26T12:28:23;101549.09;;;20.27;37.14
46710;BME280;32442;51.514;-0.178;2023-04-26T12:30:51;101544.03;;;20.34;36.37
46710;BME280;32442;51.514;-0.178;2023-04-26T12:33:18;101537.00;;;20.36;36.23
46710;BME280;32442;51.514;-0.178;2023-04-26T12:35:48;101531.91;;;20.44;36.75
46710;BME280;32442;51.514;-0.178;2023-04-26T12:38:17;101546.66;;;20.54;36.49
46710;BME280;32442;51.514;-0.178;2023-04-26T12:40:44;101545.78;;;20.59;36.55
46710;BME280;32442;51.514;-0.178;2023-04-26T12:43:12;101548.25;;;20.65;36.15
46710;BME280;32442;51.514;-0.178;2023-04-26T12:45:42;101543.44;;;20.71;36.25
46710;BME280;32442;51.514;-0.178;2023-04-26T12:48:10;101542.00;;;20.73;35.87
46710;BME280;32442;51.514;-0.178;2023-04-26T12:50:43;101539.44;;;20.77;36.10
46710;BME280;32442;51.514;-0.178;2023-04-26T12:53:11;101543.59;;;20.84;36.00
46710;BME280;32442;51.514;-0.178;2023-04-26T12:55:39;101539.88;;;20.89;35.89
46710;BME280;32442;51.514;-0.178;2023-04-26T12:58:07;101538.16;;;20.93;36.28
46710;BME280;32442;51.514;-0.178;2023-04-26T13:00:34;101540.97;;;20.93;36.35
46710;BME280;32442;51.514;-0.178;2023-04-26T13:03:02;101542.88;;;20.98;36.49
46710;BME280;32442;51.514;-0.178;2023-04-26T13:05:30;101539.19;;;21.02;36.12
46710;BME280;32442;51.514;-0.178;2023-04-26T13:07:58;101532.13;;;21.05;36.55
46710;BME280;32442;51.514;-0.178;2023-04-26T13:10:27;101544.66;;;21.17;36.70
46710;BME280;32442;51.514;-0.178;2023-04-26T13:12:55;101540.88;;;21.27;36.88
46710;BME280;32442;51.514;-0.178;2023-04-26T13:15:24;101542.22;;;21.35;36.59
46710;BME280;32442;51.514;-0.178;2023-04-26T13:17:52;101546.09;;;21.39;36.15
46710;BME280;32442;51.514;-0.178;2023-04-26T13:20:20;101537.97;;;21.37;36.08